createdAt,value
2023-12-26T00:00:29.959Z,11.70
2023-12-26T00:05:32.693Z,9.67
2023-12-26T00:10:35.683Z,9.27
2023-12-26T00:15:38.625Z,12.23
2023-12-26T00:20:44.999Z,10.10
2023-12-26T00:25:48.302Z,11.80
2023-12-26T00:30:53.851Z,10.77
2023-12-26T00:35:58.478Z,9.23
2023-12-26T00:41:01.138Z,10.33
2023-12-26T00:46:03.862Z,10.37
2023-12-26T00:51:07.395Z,9.50
2023-12-26T00:56:09.987Z,9.33
2023-12-26T01:01:12.672Z,9.90
2023-12-26T01:06:16.496Z,8.77
2023-12-26T01:11:19.263Z,12.43
2023-12-26T01:16:23.959Z,11.53
2023-12-26T01:21:26.718Z,8.47
2023-12-26T01:26:32.248Z,10.93
2023-12-26T01:31:38.450Z,10.93
2023-12-26T01:36:42.402Z,9.03
2023-12-26T01:41:45.123Z,10.03
2023-12-26T01:46:47.788Z,9.83
2023-12-26T01:51:53.251Z,11.57
2023-12-26T01:56:56.252Z,11.90
2023-12-26T02:01:59.864Z,8.00
2023-12-26T02:07:03.530Z,12.07
2023-12-26T02:12:07.503Z,9.20
2023-12-26T02:17:16.852Z,9.93
2023-12-26T02:22:19.875Z,10.43
2023-12-26T02:27:26.720Z,11.97
2023-12-26T02:32:29.931Z,9.13
2023-12-26T02:37:32.963Z,10.00
2023-12-26T02:42:35.589Z,11.20
2023-12-26T02:47:38.290Z,10.73
2023-12-26T02:52:43.204Z,11.77
2023-12-26T02:57:45.832Z,10.63
2023-12-26T03:02:48.525Z,11.60
2023-12-26T03:07:51.432Z,8.43
2023-12-26T03:12:55.345Z,13.60
2023-12-26T03:17:58.311Z,11.33
2023-12-26T03:23:01.195Z,10.63
2023-12-26T03:28:03.939Z,9.53
2023-12-26T03:33:07.989Z,10.07
2023-12-26T03:38:10.692Z,9.77
2023-12-26T03:43:14.632Z,11.60
2023-12-26T03:48:19.179Z,7.33
2023-12-26T03:53:22.894Z,13.30
2023-12-26T03:58:25.599Z,12.37
2023-12-26T04:03:28.449Z,13.13
2023-12-26T04:08:31.351Z,10.10
2023-12-26T04:13:34.058Z,8.80
2023-12-26T04:18:37.366Z,9.70
2023-12-26T04:23:40.255Z,9.33
2023-12-26T04:28:43.513Z,13.63
2023-12-26T04:33:46.926Z,9.83
2023-12-26T04:38:50.030Z,8.53
2023-12-26T04:43:52.745Z,11.80
2023-12-26T04:48:55.635Z,9.93
2023-12-26T04:53:58.840Z,10.10
2023-12-26T04:59:01.974Z,12.47
2023-12-26T05:04:05.444Z,8.93
2023-12-26T05:09:08.101Z,10.67
2023-12-26T05:14:10.800Z,11.30
2023-12-26T05:19:13.736Z,10.67
2023-12-26T05:24:16.902Z,10.77
2023-12-26T05:29:19.693Z,10.67
2023-12-26T05:34:22.550Z,12.33
2023-12-26T05:39:25.420Z,12.57
2023-12-26T05:44:28.245Z,8.23
2023-12-26T05:49:32.154Z,10.10
2023-12-26T05:54:34.953Z,10.90
2023-12-26T05:59:37.906Z,8.43
2023-12-26T06:04:41.210Z,10.07
2023-12-26T06:09:44.591Z,9.83
2023-12-26T06:14:47.574Z,11.50
2023-12-26T06:19:51.074Z,12.00
2023-12-26T06:24:53.824Z,8.27
2023-12-26T06:29:57.694Z,10.03
2023-12-26T06:35:01.982Z,11.73
2023-12-26T06:40:06.987Z,7.63
2023-12-26T06:45:09.969Z,7.80
2023-12-26T06:50:12.985Z,10.70
2023-12-26T06:55:28.158Z,10.30
2023-12-26T07:42:38.241Z,4.40
2023-12-26T08:00:37.994Z,3.20
2023-12-26T08:06:16.528Z,4.07
2023-12-26T08:53:08.095Z,1.13
2023-12-26T09:34:26.203Z,0.43
2023-12-26T09:39:29.311Z,0.73
2023-12-26T09:44:33.211Z,2.63
2023-12-26T09:49:38.459Z,0.97
2023-12-26T09:54:47.620Z,1.00
2023-12-26T09:59:52.884Z,0.63
2023-12-26T10:04:56.313Z,1.07
2023-12-26T10:09:59.527Z,1.80
2023-12-26T10:15:06.581Z,1.10
2023-12-26T10:20:09.946Z,0.33
2023-12-26T10:25:14.390Z,0.60
2023-12-26T10:30:19.402Z,1.47
2023-12-26T10:35:22.510Z,0.70
2023-12-26T10:40:25.114Z,0.87
2023-12-26T10:45:28.222Z,2.00
2023-12-26T10:50:36.344Z,1.40
2023-12-26T10:55:39.208Z,0.30
2023-12-26T11:00:54.755Z,0.53
2023-12-26T11:06:53.516Z,1.53
2023-12-26T11:13:11.172Z,1.77
2023-12-26T11:19:28.500Z,0.70
2023-12-26T11:25:47.119Z,0.93
2023-12-26T11:32:04.231Z,1.70
2023-12-26T11:38:21.669Z,1.70
2023-12-26T11:44:38.765Z,1.37
2023-12-26T11:50:56.271Z,1.47
2023-12-26T11:57:13.640Z,2.33
2023-12-26T12:03:30.822Z,2.23
2023-12-26T12:09:47.678Z,1.57
2023-12-26T12:16:05.248Z,1.00
2023-12-26T12:22:22.796Z,1.33
2023-12-26T12:28:40.196Z,1.80
2023-12-26T12:35:00.430Z,2.37
2023-12-26T12:41:18.021Z,1.20
2023-12-26T12:47:35.014Z,1.07
2023-12-26T12:53:52.477Z,2.17
2023-12-26T13:00:10.214Z,2.27
2023-12-26T13:06:27.736Z,2.23
2023-12-26T13:12:45.167Z,1.80
2023-12-26T13:19:02.214Z,1.90
2023-12-26T13:25:18.904Z,2.07
2023-12-26T13:31:37.193Z,1.77
2023-12-26T13:37:57.371Z,1.63
2023-12-26T13:44:15.557Z,2.47
2023-12-26T13:50:33.267Z,2.20
2023-12-26T13:55:54.536Z,1.40
2023-12-26T14:01:34.668Z,1.90
2023-12-26T14:06:37.341Z,1.10
2023-12-26T14:12:28.236Z,2.53
2023-12-26T14:18:39.777Z,1.53
2023-12-26T14:55:26.882Z,2.10
2023-12-26T15:01:06.986Z,2.77
2023-12-26T15:06:18.086Z,2.55
2023-12-26T15:11:40.264Z,3.40
2023-12-26T15:16:42.926Z,2.53
2023-12-26T15:21:46.064Z,3.27
2023-12-26T15:26:48.979Z,3.60
2023-12-26T15:31:52.849Z,4.70
2023-12-26T15:36:55.554Z,3.80
2023-12-26T15:41:58.199Z,2.50
2023-12-26T15:47:00.920Z,2.27
2023-12-26T15:52:03.644Z,4.37
2023-12-26T15:57:06.351Z,2.93
2023-12-26T16:02:09.017Z,1.90
2023-12-26T16:07:11.668Z,3.83
2023-12-26T16:12:14.331Z,3.13
2023-12-26T16:17:17.092Z,2.43
2023-12-26T16:22:20.151Z,2.67
2023-12-26T16:27:22.867Z,3.70
2023-12-26T16:32:25.510Z,3.93
2023-12-26T16:37:28.165Z,3.53
2023-12-26T16:42:30.862Z,3.50
2023-12-26T16:47:33.944Z,4.97
2023-12-26T16:52:37.004Z,5.53
2023-12-26T16:57:39.691Z,4.50
2023-12-26T17:02:42.292Z,4.20
2023-12-26T17:07:45.249Z,4.10
2023-12-26T17:12:48.445Z,4.40
2023-12-26T17:17:51.258Z,3.47
2023-12-26T17:22:54.220Z,3.23
2023-12-26T17:27:57.314Z,4.33
2023-12-26T17:33:00.993Z,5.13
2023-12-26T17:38:06.190Z,3.87
2023-12-26T17:43:08.925Z,3.93
2023-12-26T17:48:11.686Z,3.80
2023-12-26T17:53:14.437Z,5.47
2023-12-26T17:58:17.176Z,4.87
2023-12-26T18:03:19.998Z,3.67
2023-12-26T18:08:22.629Z,3.63
2023-12-26T18:13:25.139Z,3.73
2023-12-26T18:18:30.550Z,4.67
2023-12-26T18:23:40.804Z,4.33
2023-12-26T18:28:44.548Z,3.67
2023-12-26T18:33:47.310Z,3.97
2023-12-26T18:38:51.438Z,4.83
2023-12-26T18:43:54.191Z,3.13
2023-12-26T18:48:57.010Z,3.47
2023-12-26T18:53:59.908Z,4.07
2023-12-26T18:59:03.229Z,3.80
2023-12-26T19:04:06.147Z,3.67
2023-12-26T19:09:12.633Z,5.40
2023-12-26T19:14:15.457Z,3.97
2023-12-26T19:19:20.073Z,3.10
2023-12-26T19:24:23.008Z,2.87
2023-12-26T19:29:25.708Z,5.27
2023-12-26T19:34:28.308Z,3.67
2023-12-26T19:39:31.059Z,4.30
2023-12-26T19:44:35.127Z,6.60
2023-12-26T19:49:38.868Z,4.50
2023-12-26T19:54:44.660Z,6.17
2023-12-26T19:59:47.233Z,4.10
2023-12-26T20:04:49.871Z,4.63
2023-12-26T20:09:52.513Z,4.07
2023-12-26T20:14:55.221Z,3.70
2023-12-26T20:19:58.122Z,5.07
2023-12-26T20:25:00.891Z,4.53
2023-12-26T20:30:03.779Z,4.37
2023-12-26T20:35:08.187Z,4.20
2023-12-26T20:40:11.402Z,5.53
2023-12-26T20:45:14.065Z,5.27
2023-12-26T20:50:16.904Z,5.47
2023-12-26T20:55:19.399Z,5.23
2023-12-26T21:00:21.956Z,3.37
2023-12-26T21:05:24.468Z,5.77
2023-12-26T21:10:29.096Z,5.20
2023-12-26T21:15:31.666Z,4.90
2023-12-26T21:20:34.248Z,6.70
2023-12-26T21:25:36.778Z,4.57
2023-12-26T21:30:39.405Z,5.77
2023-12-26T21:35:42.087Z,4.27
2023-12-26T21:40:49.095Z,5.00
2023-12-26T21:45:51.816Z,7.60
2023-12-26T21:50:54.376Z,6.07
2023-12-26T21:55:56.860Z,5.23
2023-12-26T22:00:59.376Z,5.10
2023-12-26T22:06:02.135Z,6.03
2023-12-26T22:11:04.994Z,4.93
2023-12-26T22:16:07.638Z,5.60
2023-12-26T22:21:10.384Z,4.87
2023-12-26T22:26:12.886Z,6.93
2023-12-26T22:31:23.256Z,6.23
2023-12-26T22:36:27.212Z,5.70
2023-12-26T22:41:32.746Z,4.57
2023-12-26T22:46:35.326Z,4.90
2023-12-26T22:51:37.928Z,6.37
2023-12-26T22:56:41.833Z,7.73
2023-12-26T23:01:46.739Z,6.37
2023-12-26T23:06:49.466Z,3.80
2023-12-26T23:11:52.981Z,6.63
2023-12-26T23:16:55.535Z,5.13
2023-12-26T23:21:58.083Z,6.83
2023-12-26T23:27:00.632Z,7.00
2023-12-26T23:32:03.829Z,6.13
2023-12-26T23:37:06.589Z,6.77
2023-12-26T23:42:09.147Z,6.90
2023-12-26T23:47:15.141Z,5.53
2023-12-26T23:52:17.952Z,5.27
2023-12-26T23:57:20.518Z,6.63
